Terminal Aerodrome Forecast
Issued by NWS Portland, ME

Home | Current Version | Previous Version | Text Only | Print | Product List | Glossary On
Versions: 1 2 3 4 5 6 7 8 9 10 11 12 13 14 15 16 17 18 19
000
FTUS41 KGYX 290007 AAA
TAFPWM
TAF AMD
KPWM 290007Z 2900/2924 18006KT P6SM OVC009
     FM290400 20006KT 5SM BR OVC007
     FM291200 25007KT P6SM SCT100 BKN250
     FM291400 30012G20KT P6SM SKC=

USA.gov is the U.S. government's official web portal to all federal, state and local government web resources and services.